Anglian Lady — VOLP — position and weather

sailwx.info

Track history (hours):
 
Tides and Currents Weather Stations Pressure Air Temp Water Temp Dewpoint Dewpoint Depression Visibility Wind Speed Wind Dir Waves Ship Positions

Anglian Lady

Last reported at 2015-May-25 04:19 UTC. Time now 2015-May-25 17:36 UTC.
Position N 45°53' W 084°03'.

Length 32 m.

Type: Tug. MMSI: 316002238.

Date/timePositionNaut miles runAvg speedWind from/ knotsBaromVisibWave heightAir tempDewpointWater temp
2015-May-25 04:19N 45°53' W 084°03'6 8.1
2015-May-25 03:33N 45°52' W 084°12'8 8.0
2015-May-25 02:33N 45°51' W 084°23'8 7.9
2015-May-25 01:33N 45°51' W 084°35'8 7.7
2015-May-25 00:33N 45°49' W 084°45'8 7.9
2015-May-24 23:33N 45°49' W 084°57'8 7.9
2015-May-24 22:33N 45°49' W 085°08'8 7.7
2015-May-24 21:33N 45°42' W 085°13'8 8.4
2015-May-24 20:33N 45°35' W 085°19'9 8.6
2015-May-24 19:33N 45°28' W 085°26'9 8.6
2015-May-24 18:33N 45°21' W 085°34'9 8.5
2015-May-24 17:33N 45°15' W 085°41'8 8.5
2015-May-24 16:33N 45°08' W 085°49'9 8.7
2015-May-24 15:28N 45°00' W 085°57'8 9.1
2015-May-24 14:33N 44°56' W 086°06'  
2015-May-21 14:26N 44°57' W 086°06'7 7.4
2015-May-21 13:33N 45°00' W 085°57'7 7.5
2015-May-21 12:33N 45°07' W 085°52'8 7.6
2015-May-21 11:33N 45°13' W 085°46'8 7.6
2015-May-21 10:33N 45°19' W 085°40'8 7.6
2015-May-21 09:33N 45°25' W 085°33'8 7.6
2015-May-21 08:33N 45°31' W 085°27'8 7.6
2015-May-21 07:33N 45°37' W 085°20'8 7.6
2015-May-21 06:33N 45°43' W 085°14'6 6.4
2015-May-21 05:33N 45°49' W 085°09'7 6.8
2015-May-21 04:33N 45°50' W 084°59'8 8.1
2015-May-21 03:33N 45°49' W 084°48'8 7.7
2015-May-21 02:33N 45°51' W 084°37'8 7.8
2015-May-21 01:33N 45°52' W 084°26'8 7.7
2015-May-21 00:33N 45°53' W 084°15'  
2015-May-17 01:10N 46°50' W 091°39'6 7.1
2015-May-17 00:22N 46°47' W 091°47'6 6.9
2015-May-16 23:33N 46°45' W 091°54'5 4.7
2015-May-16 22:33N 46°43' W 092°01'4 4.4
2015-May-16 21:32N 46°45' W 092°06'1 1.4
2015-May-16 20:33N 46°45' W 092°08'0 0.0
2015-May-16 19:33N 46°45' W 092°08'0 0.0
2015-May-16 18:33N 46°45' W 092°08'0 0.0
2015-May-16 17:33N 46°45' W 092°08'0 0.0
2015-May-16 16:32N 46°45' W 092°08'0 0.0
2015-May-16 15:33N 46°45' W 092°08'0 0.0
2015-May-16 14:33N 46°45' W 092°08'0 0.0
2015-May-16 13:33N 46°45' W 092°08'0 0.0
2015-May-16 12:33N 46°45' W 092°08'0 0.0
2015-May-16 11:33N 46°45' W 092°08'0 0.0
2015-May-16 10:33N 46°45' W 092°08'0 0.0
2015-May-16 09:33N 46°45' W 092°08'0 0.0
2015-May-16 08:33N 46°45' W 092°08'0 0.0
2015-May-16 07:33N 46°45' W 092°08'0 0.0
2015-May-16 06:33N 46°45' W 092°08'0 0.0
2015-May-16 05:33N 46°45' W 092°08'0 0.0
2015-May-16 04:33N 46°45' W 092°08'0 0.0
2015-May-16 03:33N 46°45' W 092°08'0 0.0
2015-May-16 02:32N 46°45' W 092°08'0 0.0
2015-May-16 01:34N 46°45' W 092°08'0 0.0
2015-May-16 00:33N 46°45' W 092°08'0 0.0
2015-May-15 23:33N 46°45' W 092°08'0 0.0
2015-May-15 22:33N 46°45' W 092°08'0 0.0
2015-May-15 21:32N 46°45' W 092°08'0 0.0
2015-May-15 20:33N 46°45' W 092°08'0 0.0
2015-May-15 19:33N 46°45' W 092°08'0 0.0
2015-May-15 18:33N 46°45' W 092°08'0 0.0
2015-May-15 17:33N 46°45' W 092°08'0 0.0
2015-May-15 16:33N 46°45' W 092°08'  
Track history (hours):
 
Tides and Currents Weather Stations Pressure Air Temp Water Temp Dewpoint Dewpoint Depression Visibility Wind Speed Wind Dir Waves Ship Positions

Anglian Lady

Last reported at 2015-May-25 04:19 UTC. Time now 2015-May-25 17:36 UTC.
Position N 45°53' W 084°03'.

Length 32 m.

Type: Tug. MMSI: 316002238.

Date/timePositionNaut miles runAvg speedWind from/ knotsBaromVisibWave heightAir tempDewpointWater temp
2015-May-25 04:19N 45°53' W 084°03'6 8.1
2015-May-25 03:33N 45°52' W 084°12'8 8.0
2015-May-25 02:33N 45°51' W 084°23'8 7.9
2015-May-25 01:33N 45°51' W 084°35'8 7.7
2015-May-25 00:33N 45°49' W 084°45'8 7.9
2015-May-24 23:33N 45°49' W 084°57'8 7.9
2015-May-24 22:33N 45°49' W 085°08'8 7.7
2015-May-24 21:33N 45°42' W 085°13'8 8.4
2015-May-24 20:33N 45°35' W 085°19'9 8.6
2015-May-24 19:33N 45°28' W 085°26'9 8.6
2015-May-24 18:33N 45°21' W 085°34'9 8.5
2015-May-24 17:33N 45°15' W 085°41'8 8.5
2015-May-24 16:33N 45°08' W 085°49'9 8.7
2015-May-24 15:28N 45°00' W 085°57'8 9.1
2015-May-24 14:33N 44°56' W 086°06'  
2015-May-21 14:26N 44°57' W 086°06'7 7.4
2015-May-21 13:33N 45°00' W 085°57'7 7.5
2015-May-21 12:33N 45°07' W 085°52'8 7.6
2015-May-21 11:33N 45°13' W 085°46'8 7.6
2015-May-21 10:33N 45°19' W 085°40'8 7.6
2015-May-21 09:33N 45°25' W 085°33'8 7.6
2015-May-21 08:33N 45°31' W 085°27'8 7.6
2015-May-21 07:33N 45°37' W 085°20'8 7.6
2015-May-21 06:33N 45°43' W 085°14'6 6.4
2015-May-21 05:33N 45°49' W 085°09'7 6.8
2015-May-21 04:33N 45°50' W 084°59'8 8.1
2015-May-21 03:33N 45°49' W 084°48'8 7.7
2015-May-21 02:33N 45°51' W 084°37'8 7.8
2015-May-21 01:33N 45°52' W 084°26'8 7.7
2015-May-21 00:33N 45°53' W 084°15'  
2015-May-17 01:10N 46°50' W 091°39'6 7.1
2015-May-17 00:22N 46°47' W 091°47'6 6.9
2015-May-16 23:33N 46°45' W 091°54'5 4.7
2015-May-16 22:33N 46°43' W 092°01'4 4.4
2015-May-16 21:32N 46°45' W 092°06'1 1.4
2015-May-16 20:33N 46°45' W 092°08'0 0.0
2015-May-16 19:33N 46°45' W 092°08'0 0.0
2015-May-16 18:33N 46°45' W 092°08'0 0.0
2015-May-16 17:33N 46°45' W 092°08'0 0.0
2015-May-16 16:32N 46°45' W 092°08'0 0.0
2015-May-16 15:33N 46°45' W 092°08'0 0.0
2015-May-16 14:33N 46°45' W 092°08'0 0.0
2015-May-16 13:33N 46°45' W 092°08'0 0.0
2015-May-16 12:33N 46°45' W 092°08'0 0.0
2015-May-16 11:33N 46°45' W 092°08'0 0.0
2015-May-16 10:33N 46°45' W 092°08'0 0.0
2015-May-16 09:33N 46°45' W 092°08'0 0.0
2015-May-16 08:33N 46°45' W 092°08'0 0.0
2015-May-16 07:33N 46°45' W 092°08'0 0.0
2015-May-16 06:33N 46°45' W 092°08'0 0.0
2015-May-16 05:33N 46°45' W 092°08'0 0.0
2015-May-16 04:33N 46°45' W 092°08'0 0.0
2015-May-16 03:33N 46°45' W 092°08'0 0.0
2015-May-16 02:32N 46°45' W 092°08'0 0.0
2015-May-16 01:34N 46°45' W 092°08'0 0.0
2015-May-16 00:33N 46°45' W 092°08'0 0.0
2015-May-15 23:33N 46°45' W 092°08'0 0.0
2015-May-15 22:33N 46°45' W 092°08'0 0.0
2015-May-15 21:32N 46°45' W 092°08'0 0.0
2015-May-15 20:33N 46°45' W 092°08'0 0.0
2015-May-15 19:33N 46°45' W 092°08'0 0.0
2015-May-15 18:33N 46°45' W 092°08'0 0.0
2015-May-15 17:33N 46°45' W 092°08'0 0.0
2015-May-15 16:33N 46°45' W 092°08'  

Dump ship's entire track history